sensor_id;sensor_type;location;lat;lon;timestamp;pressure;altitude;pressure_sealevel;temperature;humidity
37304;BME280;23188;51.188;16.374;2022-09-06T00:03:16;100947.64;;;16.53;68.74
37304;BME280;23188;51.188;16.374;2022-09-06T00:07:17;100943.05;;;16.63;68.18
37304;BME280;23188;51.188;16.374;2022-09-06T00:11:18;100948.02;;;16.72;68.64
37304;BME280;23188;51.188;16.374;2022-09-06T00:15:20;100947.58;;;16.77;67.75
37304;BME280;23188;51.188;16.374;2022-09-06T00:19:22;100939.21;;;16.80;68.28
37304;BME280;23188;51.188;16.374;2022-09-06T00:23:23;100944.48;;;16.85;67.92
37304;BME280;23188;51.188;16.374;2022-09-06T00:27:24;100946.73;;;16.90;67.40
37304;BME280;23188;51.188;16.374;2022-09-06T00:31:26;100943.05;;;16.91;67.00
37304;BME280;23188;51.188;16.374;2022-09-06T00:35:28;100943.53;;;16.91;67.03
37304;BME280;23188;51.188;16.374;2022-09-06T00:39:29;100938.84;;;16.93;67.75
37304;BME280;23188;51.188;16.374;2022-09-06T00:43:31;100938.16;;;16.91;67.67
37304;BME280;23188;51.188;16.374;2022-09-06T00:47:34;100931.95;;;16.90;67.54
37304;BME280;23188;51.188;16.374;2022-09-06T00:51:36;100932.40;;;16.85;67.85
37304;BME280;23188;51.188;16.374;2022-09-06T00:55:38;100935.88;;;16.82;68.59
37304;BME280;23188;51.188;16.374;2022-09-06T00:59:41;100930.81;;;16.79;68.89
37304;BME280;23188;51.188;16.374;2022-09-06T01:03:43;100930.46;;;16.78;69.04
37304;BME280;23188;51.188;16.374;2022-09-06T01:08:21;100930.81;;;16.79;69.91
37304;BME280;23188;51.188;16.374;2022-09-06T01:21:13;100925.94;;;16.64;71.23
37304;BME280;23188;51.188;16.374;2022-09-06T01:29:49;100921.05;;;16.50;72.53
37304;BME280;23188;51.188;16.374;2022-09-06T01:38:20;100925.69;;;16.44;72.82
37304;BME280;23188;51.188;16.374;2022-09-06T01:42:28;100914.05;;;16.39;72.81
37304;BME280;23188;51.188;16.374;2022-09-06T01:46:36;100915.20;;;16.36;72.49
37304;BME280;23188;51.188;16.374;2022-09-06T02:04:10;100933.30;;;16.10;72.67
37304;BME280;23188;51.188;16.374;2022-09-06T02:08:28;100922.47;;;16.02;73.26
37304;BME280;23188;51.188;16.374;2022-09-06T02:12:31;100905.56;;;15.92;73.93
37304;BME280;23188;51.188;16.374;2022-09-06T02:16:38;100902.16;;;15.90;74.92
37304;BME280;23188;51.188;16.374;2022-09-06T02:20:49;100891.16;;;15.83;75.19
37304;BME280;23188;51.188;16.374;2022-09-06T02:24:52;100888.20;;;15.76;74.47
37304;BME280;23188;51.188;16.374;2022-09-06T02:28:55;100889.20;;;15.75;74.85
37304;BME280;23188;51.188;16.374;2022-09-06T02:33:01;100902.80;;;15.78;74.05
37304;BME280;23188;51.188;16.374;2022-09-06T02:37:04;100902.23;;;15.84;74.50
37304;BME280;23188;51.188;16.374;2022-09-06T02:41:06;100890.52;;;15.85;74.33
37304;BME280;23188;51.188;16.374;2022-09-06T02:45:08;100879.27;;;15.85;73.76
37304;BME280;23188;51.188;16.374;2022-09-06T02:49:10;100877.13;;;15.75;73.78
37304;BME280;23188;51.188;16.374;2022-09-06T02:53:12;100877.20;;;15.69;73.62
37304;BME280;23188;51.188;16.374;2022-09-06T02:57:15;100877.28;;;15.64;74.35
37304;BME280;23188;51.188;16.374;2022-09-06T03:01:16;100876.94;;;15.63;74.67
37304;BME280;23188;51.188;16.374;2022-09-06T03:05:17;100877.58;;;15.61;75.19
37304;BME280;23188;51.188;16.374;2022-09-06T03:09:19;100881.30;;;15.64;75.22
37304;BME280;23188;51.188;16.374;2022-09-06T03:13:21;100883.40;;;15.70;75.85
37304;BME280;23188;51.188;16.374;2022-09-06T03:17:23;100886.22;;;15.78;75.04
37304;BME280;23188;51.188;16.374;2022-09-06T03:21:25;100879.30;;;15.76;73.62
37304;BME280;23188;51.188;16.374;2022-09-06T03:25:26;100860.82;;;15.73;72.82
37304;BME280;23188;51.188;16.374;2022-09-06T03:29:29;100855.88;;;15.68;71.92
37304;BME280;23188;51.188;16.374;2022-09-06T03:33:30;100843.71;;;15.60;71.00
37304;BME280;23188;51.188;16.374;2022-09-06T03:37:32;100853.92;;;15.60;71.11
37304;BME280;23188;51.188;16.374;2022-09-06T03:41:33;100856.95;;;15.61;70.89
37304;BME280;23188;51.188;16.374;2022-09-06T03:45:34;100863.31;;;15.60;71.10
37304;BME280;23188;51.188;16.374;2022-09-06T03:49:36;100867.55;;;15.63;71.47
37304;BME280;23188;51.188;16.374;2022-09-06T03:53:37;100867.55;;;15.63;72.15
37304;BME280;23188;51.188;16.374;2022-09-06T03:57:38;100861.89;;;15.66;73.00
37304;BME280;23188;51.188;16.374;2022-09-06T04:01:39;100862.41;;;15.65;72.40
37304;BME280;23188;51.188;16.374;2022-09-06T04:05:45;100862.59;;;15.68;73.40
37304;BME280;23188;51.188;16.374;2022-09-06T04:09:47;100871.80;;;15.65;73.92
37304;BME280;23188;51.188;16.374;2022-09-06T04:13:48;100870.16;;;15.68;73.50
37304;BME280;23188;51.188;16.374;2022-09-06T04:17:49;100872.19;;;15.70;74.37
37304;BME280;23188;51.188;16.374;2022-09-06T04:21:50;100884.19;;;15.76;74.01
37304;BME280;23188;51.188;16.374;2022-09-06T04:25:54;100884.58;;;15.81;74.37
37304;BME280;23188;51.188;16.374;2022-09-06T04:29:57;100879.70;;;15.91;74.62
37304;BME280;23188;51.188;16.374;2022-09-06T04:33:58;100886.19;;;15.98;74.85
37304;BME280;23188;51.188;16.374;2022-09-06T04:38:00;100893.81;;;16.03;74.89
37304;BME280;23188;51.188;16.374;2022-09-06T04:42:02;100906.12;;;16.09;76.18
37304;BME280;23188;51.188;16.374;2022-09-06T04:46:26;100894.72;;;15.97;77.37
37304;BME280;23188;51.188;16.374;2022-09-06T04:50:25;100885.80;;;15.93;77.96
37304;BME280;23188;51.188;16.374;2022-09-06T04:54:27;100878.36;;;15.91;76.98
37304;BME280;23188;51.188;16.374;2022-09-06T04:58:28;100883.72;;;15.91;76.92
37304;BME280;23188;51.188;16.374;2022-09-06T05:02:29;100888.89;;;16.26;76.64
37304;BME280;23188;51.188;16.374;2022-09-06T05:06:30;100896.89;;;16.50;75.89
37304;BME280;23188;51.188;16.374;2022-09-06T05:10:31;100891.83;;;16.47;75.14
37304;BME280;23188;51.188;16.374;2022-09-06T05:14:34;100896.07;;;16.35;74.92
37304;BME280;23188;51.188;16.374;2022-09-06T05:18:35;100892.48;;;16.17;75.02
37304;BME280;23188;51.188;16.374;2022-09-06T05:22:37;100894.89;;;15.96;75.05
37304;BME280;23188;51.188;16.374;2022-09-06T05:26:40;100899.13;;;15.89;76.08
37304;BME280;23188;51.188;16.374;2022-09-06T05:30:41;100900.97;;;15.78;77.26
37304;BME280;23188;51.188;16.374;2022-09-06T05:34:42;100901.13;;;15.67;77.75
37304;BME280;23188;51.188;16.374;2022-09-06T05:38:44;100901.83;;;15.69;77.76
37304;BME280;23188;51.188;16.374;2022-09-06T05:42:45;100896.41;;;15.65;78.26
37304;BME280;23188;51.188;16.374;2022-09-06T05:46:47;100898.61;;;15.65;78.98
37304;BME280;23188;51.188;16.374;2022-09-06T05:51:03;100896.91;;;15.64;78.99
37304;BME280;23188;51.188;16.374;2022-09-06T05:55:02;100889.35;;;15.64;80.28
37304;BME280;23188;51.188;16.374;2022-09-06T05:59:04;100890.75;;;15.68;80.93
37304;BME280;23188;51.188;16.374;2022-09-06T06:03:05;100893.24;;;15.65;79.16
37304;BME280;23188;51.188;16.374;2022-09-06T06:07:07;100881.95;;;15.62;80.77
37304;BME280;23188;51.188;16.374;2022-09-06T06:11:08;100879.86;;;15.55;80.91
37304;BME280;23188;51.188;16.374;2022-09-06T06:15:09;100885.22;;;15.55;79.86
37304;BME280;23188;51.188;16.374;2022-09-06T06:19:11;100882.09;;;15.50;79.50
37304;BME280;23188;51.188;16.374;2022-09-06T06:23:14;100874.56;;;15.50;81.28
37304;BME280;23188;51.188;16.374;2022-09-06T06:27:15;100873.41;;;15.52;82.59
37304;BME280;23188;51.188;16.374;2022-09-06T06:31:17;100880.55;;;15.58;82.90
37304;BME280;23188;51.188;16.374;2022-09-06T06:35:19;100874.31;;;15.67;85.05
37304;BME280;23188;51.188;16.374;2022-09-06T06:39:20;100869.73;;;15.73;82.86
37304;BME280;23188;51.188;16.374;2022-09-06T06:43:22;100858.45;;;15.83;82.24
37304;BME280;23188;51.188;16.374;2022-09-06T06:47:23;100865.38;;;15.96;80.46
37304;BME280;23188;51.188;16.374;2022-09-06T06:51:28;100857.59;;;16.03;79.63
37304;BME280;23188;51.188;16.374;2022-09-06T06:55:30;100871.95;;;16.11;79.86
37304;BME280;23188;51.188;16.374;2022-09-06T06:59:31;100883.69;;;16.24;78.78
37304;BME280;23188;51.188;16.374;2022-09-06T07:03:32;100891.73;;;16.38;77.47
37304;BME280;23188;51.188;16.374;2022-09-06T07:07:34;100890.48;;;16.47;75.05
37304;BME280;23188;51.188;16.374;2022-09-06T07:11:35;100892.59;;;16.53;75.39
37304;BME280;23188;51.188;16.374;2022-09-06T07:15:36;100889.43;;;16.58;74.96
37304;BME280;23188;51.188;16.374;2022-09-06T07:19:37;100891.92;;;16.69;74.62
37304;BME280;23188;51.188;16.374;2022-09-06T07:23:38;100899.77;;;16.80;74.13
37304;BME280;23188;51.188;16.374;2022-09-06T07:27:40;100904.36;;;16.88;73.95
37304;BME280;23188;51.188;16.374;2022-09-06T07:31:43;100898.16;;;17.02;72.38
37304;BME280;23188;51.188;16.374;2022-09-06T07:35:58;100895.81;;;17.03;71.47
37304;BME280;23188;51.188;16.374;2022-09-06T07:40:02;100903.89;;;17.21;71.83
37304;BME280;23188;51.188;16.374;2022-09-06T07:44:04;100905.49;;;17.32;70.97
37304;BME280;23188;51.188;16.374;2022-09-06T07:48:05;100901.80;;;17.33;70.83
37304;BME280;23188;51.188;16.374;2022-09-06T07:52:06;100899.28;;;17.35;71.27
37304;BME280;23188;51.188;16.374;2022-09-06T07:56:10;100881.69;;;17.41;70.58
37304;BME280;23188;51.188;16.374;2022-09-06T08:00:12;100885.08;;;17.69;69.67
37304;BME280;23188;51.188;16.374;2022-09-06T08:04:14;100881.23;;;18.29;69.76
37304;BME280;23188;51.188;16.374;2022-09-06T08:08:15;100876.27;;;18.59;67.56
37304;BME280;23188;51.188;16.374;2022-09-06T08:12:17;100875.64;;;18.86;66.46
37304;BME280;23188;51.188;16.374;2022-09-06T08:16:20;100869.58;;;18.84;65.61
37304;BME280;23188;51.188;16.374;2022-09-06T08:20:21;100873.65;;;18.96;67.21
37304;BME280;23188;51.188;16.374;2022-09-06T08:24:23;100878.06;;;19.02;66.52
37304;BME280;23188;51.188;16.374;2022-09-06T08:28:24;100880.73;;;18.89;67.65
37304;BME280;23188;51.188;16.374;2022-09-06T08:32:26;100874.36;;;18.98;66.03
37304;BME280;23188;51.188;16.374;2022-09-06T08:36:27;100872.69;;;19.14;65.84
37304;BME280;23188;51.188;16.374;2022-09-06T08:40:30;100870.00;;;19.26;65.30
37304;BME280;23188;51.188;16.374;2022-09-06T08:48:47;100862.00;;;19.79;65.99
37304;BME280;23188;51.188;16.374;2022-09-06T08:53:03;100869.47;;;20.25;63.49
37304;BME280;23188;51.188;16.374;2022-09-06T09:01:26;100875.58;;;20.54;63.95
37304;BME280;23188;51.188;16.374;2022-09-06T09:05:30;100865.65;;;20.43;64.81
37304;BME280;23188;51.188;16.374;2022-09-06T09:09:34;100865.30;;;20.10;64.96
37304;BME280;23188;51.188;16.374;2022-09-06T09:17:54;100870.25;;;19.94;64.86
37304;BME280;23188;51.188;16.374;2022-09-06T09:21:55;100868.05;;;19.93;65.57
37304;BME280;23188;51.188;16.374;2022-09-06T09:26:11;100851.97;;;20.04;65.90
37304;BME280;23188;51.188;16.374;2022-09-06T09:30:17;100842.66;;;20.19;64.66
37304;BME280;23188;51.188;16.374;2022-09-06T09:34:33;100837.03;;;20.29;64.90
37304;BME280;23188;51.188;16.374;2022-09-06T09:38:44;100841.09;;;20.29;65.61
37304;BME280;23188;51.188;16.374;2022-09-06T09:42:47;100837.94;;;20.49;64.06
37304;BME280;23188;51.188;16.374;2022-09-06T09:46:48;100827.49;;;20.69;65.66
37304;BME280;23188;51.188;16.374;2022-09-06T09:50:49;100819.02;;;21.00;62.54
37304;BME280;23188;51.188;16.374;2022-09-06T09:54:51;100815.69;;;21.12;61.83
37304;BME280;23188;51.188;16.374;2022-09-06T09:58:55;100806.32;;;21.23;62.81
37304;BME280;23188;51.188;16.374;2022-09-06T10:02:58;100799.47;;;21.32;61.35
37304;BME280;23188;51.188;16.374;2022-09-06T10:07:15;100800.72;;;21.40;62.88
37304;BME280;23188;51.188;16.374;2022-09-06T10:11:48;100790.38;;;21.29;61.43
37304;BME280;23188;51.188;16.374;2022-09-06T10:15:42;100799.19;;;21.26;61.12
37304;BME280;23188;51.188;16.374;2022-09-06T10:19:44;100800.47;;;21.16;61.96
37304;BME280;23188;51.188;16.374;2022-09-06T10:32:41;100781.11;;;21.57;60.78
37304;BME280;23188;51.188;16.374;2022-09-06T10:37:04;100790.92;;;21.73;61.32
37304;BME280;23188;51.188;16.374;2022-09-06T10:46:10;100787.11;;;22.08;60.00
37304;BME280;23188;51.188;16.374;2022-09-06T10:50:14;100784.55;;;21.96;58.48
37304;BME280;23188;51.188;16.374;2022-09-06T10:54:22;100776.09;;;21.69;59.72
37304;BME280;23188;51.188;16.374;2022-09-06T10:58:26;100777.62;;;21.67;60.64
37304;BME280;23188;51.188;16.374;2022-09-06T11:02:41;100773.06;;;21.68;60.72
37304;BME280;23188;51.188;16.374;2022-09-06T11:06:58;100779.72;;;21.76;59.77
37304;BME280;23188;51.188;16.374;2022-09-06T11:11:05;100768.56;;;21.75;59.58
37304;BME280;23188;51.188;16.374;2022-09-06T11:15:12;100773.06;;;21.68;59.42
37304;BME280;23188;51.188;16.374;2022-09-06T11:19:25;100764.42;;;21.83;58.17
37304;BME280;23188;51.188;16.374;2022-09-06T11:27:56;100771.36;;;22.08;56.42
37304;BME280;23188;51.188;16.374;2022-09-06T11:32:02;100763.70;;;22.11;56.52
37304;BME280;23188;51.188;16.374;2022-09-06T11:36:28;100773.83;;;22.14;56.64
37304;BME280;23188;51.188;16.374;2022-09-06T11:40:36;100763.55;;;22.09;56.88
37304;BME280;23188;51.188;16.374;2022-09-06T11:49:06;100760.30;;;21.88;56.28
37304;BME280;23188;51.188;16.374;2022-09-06T11:53:15;100761.98;;;21.89;56.83
37304;BME280;23188;51.188;16.374;2022-09-06T11:57:20;100756.27;;;21.99;58.51
37304;BME280;23188;51.188;16.374;2022-09-06T12:05:30;100757.34;;;22.30;55.92
37304;BME280;23188;51.188;16.374;2022-09-06T12:17:58;100732.27;;;22.65;54.42
37304;BME280;23188;51.188;16.374;2022-09-06T12:22:00;100726.80;;;22.87;56.40
37304;BME280;23188;51.188;16.374;2022-09-06T12:26:06;100734.79;;;23.06;54.23
37304;BME280;23188;51.188;16.374;2022-09-06T12:30:12;100731.48;;;23.10;52.33
37304;BME280;23188;51.188;16.374;2022-09-06T12:34:21;100724.89;;;23.09;52.93
37304;BME280;23188;51.188;16.374;2022-09-06T12:38:28;100714.31;;;23.03;52.11
37304;BME280;23188;51.188;16.374;2022-09-06T12:42:31;100706.53;;;23.11;52.17
37304;BME280;23188;51.188;16.374;2022-09-06T12:46:34;100707.75;;;23.19;51.86
37304;BME280;23188;51.188;16.374;2022-09-06T12:50:36;100692.25;;;23.13;51.67
37304;BME280;23188;51.188;16.374;2022-09-06T12:54:44;100683.88;;;23.08;51.54
37304;BME280;23188;51.188;16.374;2022-09-06T12:58:48;100673.30;;;23.02;51.80
37304;BME280;23188;51.188;16.374;2022-09-06T13:02:53;100671.44;;;23.03;52.22
37304;BME280;23188;51.188;16.374;2022-09-06T13:06:57;100675.27;;;22.87;52.01
37304;BME280;23188;51.188;16.374;2022-09-06T13:11:02;100663.84;;;22.91;53.08
37304;BME280;23188;51.188;16.374;2022-09-06T13:15:25;100660.98;;;22.82;51.64
37304;BME280;23188;51.188;16.374;2022-09-06T13:19:36;100652.84;;;22.82;51.79
37304;BME280;23188;51.188;16.374;2022-09-06T13:23:44;100648.77;;;22.82;52.24
37304;BME280;23188;51.188;16.374;2022-09-06T13:27:50;100641.16;;;22.99;52.11
37304;BME280;23188;51.188;16.374;2022-09-06T13:31:56;100637.31;;;23.04;52.34
37304;BME280;23188;51.188;16.374;2022-09-06T13:40:41;100637.58;;;23.16;50.97
37304;BME280;23188;51.188;16.374;2022-09-06T13:44:43;100632.84;;;23.07;51.04
37304;BME280;23188;51.188;16.374;2022-09-06T13:48:45;100636.63;;;22.95;52.06
37304;BME280;23188;51.188;16.374;2022-09-06T13:52:46;100632.02;;;22.89;51.79
37304;BME280;23188;51.188;16.374;2022-09-06T13:56:49;100632.10;;;22.85;51.22
37304;BME280;23188;51.188;16.374;2022-09-06T14:00:52;100634.81;;;22.85;51.68
37304;BME280;23188;51.188;16.374;2022-09-06T14:04:53;100634.50;;;22.84;52.03
37304;BME280;23188;51.188;16.374;2022-09-06T14:08:55;100627.63;;;22.88;52.78
37304;BME280;23188;51.188;16.374;2022-09-06T14:12:57;100627.31;;;23.05;51.58
37304;BME280;23188;51.188;16.374;2022-09-06T14:16:58;100621.67;;;23.06;51.89
37304;BME280;23188;51.188;16.374;2022-09-06T14:21:00;100626.55;;;23.00;51.87
37304;BME280;23188;51.188;16.374;2022-09-06T14:25:01;100620.94;;;23.02;51.95
37304;BME280;23188;51.188;16.374;2022-09-06T14:29:04;100616.42;;;22.98;51.92
37304;BME280;23188;51.188;16.374;2022-09-06T14:33:06;100614.39;;;22.89;52.70
37304;BME280;23188;51.188;16.374;2022-09-06T14:37:08;100612.16;;;22.82;52.53
37304;BME280;23188;51.188;16.374;2022-09-06T14:41:10;100613.84;;;22.83;53.52
37304;BME280;23188;51.188;16.374;2022-09-06T14:45:13;100615.25;;;22.79;52.88
37304;BME280;23188;51.188;16.374;2022-09-06T14:49:15;100606.02;;;22.84;53.65
37304;BME280;23188;51.188;16.374;2022-09-06T14:53:16;100599.33;;;22.80;52.64
37304;BME280;23188;51.188;16.374;2022-09-06T14:57:17;100600.02;;;22.78;53.28
37304;BME280;23188;51.188;16.374;2022-09-06T15:01:20;100606.48;;;22.77;53.18
37304;BME280;23188;51.188;16.374;2022-09-06T15:05:23;100605.52;;;22.74;53.93
37304;BME280;23188;51.188;16.374;2022-09-06T15:09:25;100599.06;;;22.75;54.12
37304;BME280;23188;51.188;16.374;2022-09-06T15:13:27;100592.14;;;22.65;53.62
37304;BME280;23188;51.188;16.374;2022-09-06T15:17:28;100591.42;;;22.67;54.89
37304;BME280;23188;51.188;16.374;2022-09-06T15:21:31;100583.41;;;22.70;55.54
37304;BME280;23188;51.188;16.374;2022-09-06T15:25:32;100579.45;;;22.73;56.23
37304;BME280;23188;51.188;16.374;2022-09-06T15:29:34;100577.59;;;22.73;57.69
37304;BME280;23188;51.188;16.374;2022-09-06T15:33:36;100580.48;;;22.72;57.24
37304;BME280;23188;51.188;16.374;2022-09-06T15:37:39;100578.31;;;22.71;58.17
37304;BME280;23188;51.188;16.374;2022-09-06T15:41:40;100576.19;;;22.66;57.80
37304;BME280;23188;51.188;16.374;2022-09-06T15:45:47;100571.63;;;22.56;58.59
37304;BME280;23188;51.188;16.374;2022-09-06T15:49:49;100569.23;;;22.46;60.22
37304;BME280;23188;51.188;16.374;2022-09-06T15:53:51;100566.63;;;22.31;61.39
37304;BME280;23188;51.188;16.374;2022-09-06T15:57:52;100566.14;;;22.10;61.94
37304;BME280;23188;51.188;16.374;2022-09-06T16:01:54;100553.00;;;21.96;61.57
37304;BME280;23188;51.188;16.374;2022-09-06T16:06:07;100547.02;;;21.90;61.43
37304;BME280;23188;51.188;16.374;2022-09-06T16:10:11;100547.80;;;21.83;62.14
37304;BME280;23188;51.188;16.374;2022-09-06T16:14:13;100536.66;;;21.82;62.16
37304;BME280;23188;51.188;16.374;2022-09-06T16:18:15;100536.34;;;21.81;61.88
37304;BME280;23188;51.188;16.374;2022-09-06T16:22:19;100532.45;;;21.80;61.41
37304;BME280;23188;51.188;16.374;2022-09-06T16:26:22;100534.12;;;21.81;62.02
37304;BME280;23188;51.188;16.374;2022-09-06T16:30:24;100533.28;;;21.80;62.01
37304;BME280;23188;51.188;16.374;2022-09-06T16:34:26;100531.67;;;21.75;61.85
37304;BME280;23188;51.188;16.374;2022-09-06T16:38:29;100535.03;;;21.66;62.53
37304;BME280;23188;51.188;16.374;2022-09-06T16:42:31;100534.99;;;21.55;62.82
37304;BME280;23188;51.188;16.374;2022-09-06T16:46:33;100535.95;;;21.48;62.58
37304;BME280;23188;51.188;16.374;2022-09-06T16:50:34;100542.31;;;21.40;62.36
37304;BME280;23188;51.188;16.374;2022-09-06T16:54:36;100546.00;;;21.32;62.43
37304;BME280;23188;51.188;16.374;2022-09-06T16:58:38;100547.59;;;21.26;62.41
37304;BME280;23188;51.188;16.374;2022-09-06T17:02:42;100544.60;;;21.21;62.29
37304;BME280;23188;51.188;16.374;2022-09-06T17:06:43;100538.55;;;21.19;62.63
37304;BME280;23188;51.188;16.374;2022-09-06T17:10:45;100524.77;;;21.14;62.47
37304;BME280;23188;51.188;16.374;2022-09-06T17:14:47;100521.65;;;21.06;62.50
37304;BME280;23188;51.188;16.374;2022-09-06T17:18:49;100509.78;;;20.96;62.32
37304;BME280;23188;51.188;16.374;2022-09-06T17:22:53;100506.17;;;20.89;62.36
37304;BME280;23188;51.188;16.374;2022-09-06T17:26:54;100515.36;;;20.84;62.91
37304;BME280;23188;51.188;16.374;2022-09-06T17:30:58;100508.06;;;20.69;65.06
37304;BME280;23188;51.188;16.374;2022-09-06T17:35:01;100513.66;;;20.53;66.34
37304;BME280;23188;51.188;16.374;2022-09-06T17:39:09;100529.16;;;20.40;66.94
37304;BME280;23188;51.188;16.374;2022-09-06T17:43:13;100526.08;;;20.28;67.65
37304;BME280;23188;51.188;16.374;2022-09-06T17:47:14;100529.70;;;20.20;67.10
37304;BME280;23188;51.188;16.374;2022-09-06T17:51:16;100529.58;;;20.14;66.68
37304;BME280;23188;51.188;16.374;2022-09-06T17:55:18;100525.95;;;20.06;65.49
37304;BME280;23188;51.188;16.374;2022-09-06T17:59:19;100539.78;;;20.03;66.40
37304;BME280;23188;51.188;16.374;2022-09-06T18:03:21;100534.63;;;19.97;66.90
37304;BME280;23188;51.188;16.374;2022-09-06T18:07:22;100540.73;;;19.91;67.39
37304;BME280;23188;51.188;16.374;2022-09-06T18:11:29;100538.91;;;19.83;67.66
37304;BME280;23188;51.188;16.374;2022-09-06T18:15:37;100542.00;;;19.76;67.77
37304;BME280;23188;51.188;16.374;2022-09-06T18:19:40;100538.03;;;19.68;67.39
37304;BME280;23188;51.188;16.374;2022-09-06T18:23:41;100540.08;;;19.62;68.12
37304;BME280;23188;51.188;16.374;2022-09-06T18:27:42;100538.80;;;19.53;69.26
37304;BME280;23188;51.188;16.374;2022-09-06T18:31:43;100547.94;;;19.48;69.32
37304;BME280;23188;51.188;16.374;2022-09-06T18:35:47;100545.61;;;19.41;69.93
37304;BME280;23188;51.188;16.374;2022-09-06T18:39:50;100556.42;;;19.37;69.85
37304;BME280;23188;51.188;16.374;2022-09-06T18:43:51;100550.20;;;19.32;70.12
37304;BME280;23188;51.188;16.374;2022-09-06T18:47:52;100539.78;;;19.29;70.61
37304;BME280;23188;51.188;16.374;2022-09-06T18:51:54;100538.79;;;19.26;70.31
37304;BME280;23188;51.188;16.374;2022-09-06T18:55:55;100543.55;;;19.20;69.87
37304;BME280;23188;51.188;16.374;2022-09-06T18:59:56;100541.70;;;19.16;68.43
37304;BME280;23188;51.188;16.374;2022-09-06T19:03:58;100545.72;;;19.20;68.45
37304;BME280;23188;51.188;16.374;2022-09-06T19:08:01;100541.34;;;19.19;67.09
37304;BME280;23188;51.188;16.374;2022-09-06T19:12:03;100539.14;;;19.23;66.75
37304;BME280;23188;51.188;16.374;2022-09-06T19:16:06;100541.32;;;19.23;66.03
37304;BME280;23188;51.188;16.374;2022-09-06T19:20:08;100543.00;;;19.29;66.37
37304;BME280;23188;51.188;16.374;2022-09-06T19:24:11;100538.63;;;19.28;65.71
37304;BME280;23188;51.188;16.374;2022-09-06T19:28:14;100538.76;;;19.30;65.17
37304;BME280;23188;51.188;16.374;2022-09-06T19:32:15;100535.57;;;19.31;66.00
37304;BME280;23188;51.188;16.374;2022-09-06T19:36:19;100540.11;;;19.30;66.45
37304;BME280;23188;51.188;16.374;2022-09-06T19:40:21;100531.36;;;19.28;67.26
37304;BME280;23188;51.188;16.374;2022-09-06T19:44:23;100526.84;;;19.20;66.28
37304;BME280;23188;51.188;16.374;2022-09-06T19:48:25;100515.43;;;19.14;65.91
37304;BME280;23188;51.188;16.374;2022-09-06T19:52:28;100510.40;;;19.11;65.59
37304;BME280;23188;51.188;16.374;2022-09-06T19:56:33;100508.85;;;19.12;65.84
37304;BME280;23188;51.188;16.374;2022-09-06T20:00:41;100506.19;;;19.08;66.26
37304;BME280;23188;51.188;16.374;2022-09-06T20:04:42;100509.09;;;18.98;66.77
37304;BME280;23188;51.188;16.374;2022-09-06T20:08:47;100499.69;;;18.90;67.75
37304;BME280;23188;51.188;16.374;2022-09-06T20:12:51;100505.80;;;18.76;68.62
37304;BME280;23188;51.188;16.374;2022-09-06T20:16:53;100501.96;;;18.66;67.63
37304;BME280;23188;51.188;16.374;2022-09-06T20:20:55;100497.59;;;18.65;66.92
37304;BME280;23188;51.188;16.374;2022-09-06T20:24:58;100500.09;;;18.66;66.17
37304;BME280;23188;51.188;16.374;2022-09-06T20:29:01;100494.38;;;18.69;66.19
37304;BME280;23188;51.188;16.374;2022-09-06T20:33:04;100497.07;;;18.65;66.30
37304;BME280;23188;51.188;16.374;2022-09-06T20:37:05;100491.37;;;18.60;66.62
37304;BME280;23188;51.188;16.374;2022-09-06T20:45:15;100490.75;;;18.41;66.85
37304;BME280;23188;51.188;16.374;2022-09-06T20:49:18;100497.50;;;18.37;67.04
37304;BME280;23188;51.188;16.374;2022-09-06T20:53:21;100502.92;;;18.29;66.95
37304;BME280;23188;51.188;16.374;2022-09-06T20:57:22;100502.22;;;18.27;67.03
37304;BME280;23188;51.188;16.374;2022-09-06T21:01:26;100498.72;;;18.22;67.18
37304;BME280;23188;51.188;16.374;2022-09-06T21:05:30;100494.52;;;18.16;67.49
37304;BME280;23188;51.188;16.374;2022-09-06T21:09:31;100485.09;;;18.07;67.80
37304;BME280;23188;51.188;16.374;2022-09-06T21:13:33;100489.78;;;18.01;68.02
37304;BME280;23188;51.188;16.374;2022-09-06T21:17:35;100484.76;;;17.94;68.17
37304;BME280;23188;51.188;16.374;2022-09-06T21:21:38;100483.41;;;17.81;68.12
37304;BME280;23188;51.188;16.374;2022-09-06T21:25:40;100480.05;;;17.79;68.09
37304;BME280;23188;51.188;16.374;2022-09-06T21:29:41;100481.21;;;17.77;68.02
37304;BME280;23188;51.188;16.374;2022-09-06T21:33:45;100478.38;;;17.70;68.44
37304;BME280;23188;51.188;16.374;2022-09-06T21:37:47;100480.03;;;17.67;68.97
37304;BME280;23188;51.188;16.374;2022-09-06T21:41:48;100479.55;;;17.59;69.28
37304;BME280;23188;51.188;16.374;2022-09-06T21:45:51;100474.00;;;17.52;69.53
37304;BME280;23188;51.188;16.374;2022-09-06T21:49:52;100485.41;;;17.46;69.65
37304;BME280;23188;51.188;16.374;2022-09-06T21:53:55;100477.34;;;17.42;69.66
37304;BME280;23188;51.188;16.374;2022-09-06T21:57:56;100479.53;;;17.43;69.74
37304;BME280;23188;51.188;16.374;2022-09-06T22:01:57;100475.47;;;17.38;70.34
37304;BME280;23188;51.188;16.374;2022-09-06T22:06:07;100480.85;;;17.34;71.07
37304;BME280;23188;51.188;16.374;2022-09-06T22:10:11;100473.98;;;17.32;71.32
37304;BME280;23188;51.188;16.374;2022-09-06T22:14:13;100465.23;;;17.30;70.79
37304;BME280;23188;51.188;16.374;2022-09-06T22:18:15;100464.23;;;17.31;71.43
37304;BME280;23188;51.188;16.374;2022-09-06T22:22:16;100459.50;;;17.24;71.54
37304;BME280;23188;51.188;16.374;2022-09-06T22:26:18;100453.45;;;17.22;71.82